Time;durP1;ratioP1;P1;durP2;ratioP2;P2;SDS_P1;SDS_P2;PMS_P1;PMS_P2;Temp;Humidity;BMP_temperature;BMP_pressure;BME280_temperature;BME280_humidity;BME280_pressure;Samples;Min_cycle;Max_cycle;Signal;HPM_P1;HPM_P2
2022/04/09 05:51:05;;;;;;;17.50;11.55;;;;;;;2.56;77.24;98405.44;2602545;46;20039;-63
2022/04/09 05:53:40;;;;;;;19.10;12.80;;;;;;;2.61;77.45;98394.53;2617851;54;20035;-63
2022/04/09 05:56:11;;;;;;;16.30;12.18;;;;;;;2.65;77.37;98403.69;2617477;54;20533;-62
2022/04/09 05:58:43;;;;;;;17.60;12.52;;;;;;;2.65;76.73;98401.94;2617336;54;20058;-63
2022/04/09 06:01:34;;;;;;;19.55;11.80;;;;;;;2.69;76.94;98412.88;2617429;54;20046;-63
2022/04/09 06:04:20;;;;;;;20.27;12.55;;;;;;;2.80;76.93;98420.47;2618100;39;20797;-62
2022/04/09 06:06:55;;;;;;;17.73;11.70;;;;;;;2.94;76.73;98425.16;2617332;54;20562;-64
2022/04/09 06:09:27;;;;;;;19.75;12.80;;;;;;;3.12;76.16;98434.72;2617694;54;20038;-63
2022/04/09 06:12:06;;;;;;;19.05;12.52;;;;;;;3.34;75.72;98438.56;2617558;47;20034;-63
2022/04/09 06:14:49;;;;;;;18.65;12.23;;;;;;;3.43;75.95;98442.91;2617441;47;20054;-63
2022/04/09 06:17:19;;;;;;;19.65;12.57;;;;;;;3.32;75.87;98446.59;2617402;47;20026;-62
2022/04/09 06:19:49;;;;;;;20.35;13.65;;;;;;;3.33;75.64;98437.75;2618216;54;20034;-64
2022/04/09 06:22:21;;;;;;;19.63;15.30;;;;;;;3.42;75.79;98436.81;2617452;54;20022;-63
2022/04/09 06:24:51;;;;;;;20.33;14.50;;;;;;;3.39;75.28;98439.78;2617898;39;20437;-62
2022/04/09 06:27:23;;;;;;;18.95;13.80;;;;;;;3.42;75.12;98444.66;2617266;54;20033;-63
2022/04/09 06:29:53;;;;;;;21.05;13.73;;;;;;;3.41;74.89;98453.47;2617517;47;20022;-63
2022/04/09 06:32:23;;;;;;;18.88;12.45;;;;;;;3.50;75.49;98459.56;2617355;47;20023;-63
2022/04/09 06:34:53;;;;;;;22.02;13.30;;;;;;;3.59;75.24;98453.44;2617461;54;20019;-63
2022/04/09 06:37:29;;;;;;;20.83;13.73;;;;;;;3.61;74.85;98459.31;2617235;47;20034;-63
2022/04/09 06:40:00;;;;;;;20.00;13.68;;;;;;;3.46;74.84;98474.72;2618232;39;20423;-61
2022/04/09 06:42:30;;;;;;;20.75;14.20;;;;;;;3.35;74.93;98475.03;2617414;54;20041;-63
2022/04/09 06:45:18;;;;;;;22.50;14.77;;;;;;;3.33;75.63;98470.91;2618675;39;20446;-62
2022/04/09 06:48:07;;;;;;;22.75;14.38;;;;;;;3.39;75.07;98467.69;2617878;54;20034;-63
2022/04/09 06:50:44;;;;;;;19.90;13.90;;;;;;;3.40;74.98;98466.72;2622506;54;20033;-62
2022/04/09 06:53:16;;;;;;;20.25;13.40;;;;;;;3.56;75.09;98476.44;2622368;54;20022;-63
2022/04/09 06:55:47;;;;;;;23.42;14.95;;;;;;;3.60;74.93;98467.31;2623092;39;20442;-63
2022/04/09 06:58:16;;;;;;;18.80;13.15;;;;;;;3.64;74.67;98464.22;2622397;54;20034;-62
2022/04/09 07:00:46;;;;;;;20.35;13.00;;;;;;;3.67;74.83;98471.75;2617690;47;20026;-63
2022/04/09 07:03:16;;;;;;;21.48;13.93;;;;;;;3.69;74.44;98474.22;2617361;54;20033;-63
2022/04/09 07:05:46;;;;;;;24.25;14.48;;;;;;;3.73;74.45;98486.00;2617884;54;20026;-62
2022/04/09 07:08:18;;;;;;;24.75;13.60;;;;;;;3.85;74.78;98476.88;2617399;54;20045;-63
2022/04/09 07:10:48;;;;;;;26.35;13.80;;;;;;;3.95;74.40;98485.41;2617863;54;20035;-64
2022/04/09 07:13:17;;;;;;;20.85;14.13;;;;;;;3.87;74.39;98482.75;2617208;47;20042;-62
2022/04/09 07:15:47;;;;;;;21.60;13.65;;;;;;;3.89;74.29;98485.25;2617169;54;20029;-63
2022/04/09 07:18:16;;;;;;;20.70;13.85;;;;;;;3.91;74.94;98485.88;2617692;54;20038;-63
2022/04/09 07:20:46;;;;;;;17.98;12.25;;;;;;;4.01;74.16;98491.81;2618200;54;20140;-62
2022/04/09 07:23:21;;;;;;;20.67;11.85;;;;;;;4.05;73.99;98485.31;2618031;54;20562;-62
2022/04/09 07:25:51;;;;;;;21.65;11.90;;;;;;;4.11;73.94;98489.88;2618632;39;20431;-63
2022/04/09 07:28:20;;;;;;;25.67;12.65;;;;;;;4.24;73.57;98497.28;2618637;54;20039;-64
2022/04/09 07:30:50;;;;;;;17.67;11.00;;;;;;;4.46;73.64;98499.31;2619427;39;20420;-64
2022/04/09 07:33:19;;;;;;;16.45;11.10;;;;;;;4.64;73.22;98493.91;2618537;54;20030;-64
2022/04/09 07:35:54;;;;;;;19.67;10.65;;;;;;;4.58;72.42;98502.44;2618563;54;20624;-62
2022/04/09 07:38:26;;;;;;;15.25;10.48;;;;;;;4.57;72.58;98500.81;2618304;54;20078;-63
2022/04/09 07:40:56;;;;;;;19.45;10.98;;;;;;;4.61;72.38;98504.72;2618706;54;20042;-63
2022/04/09 07:43:25;;;;;;;17.67;10.35;;;;;;;4.57;72.12;98513.03;2619055;39;20426;-63
2022/04/09 07:45:55;;;;;;;16.80;10.35;;;;;;;4.57;72.22;98510.44;2618746;54;20026;-62
2022/04/09 07:48:24;;;;;;;15.80;10.68;;;;;;;4.61;72.24;98522.22;2618160;54;20030;-61
2022/04/09 07:50:54;;;;;;;16.83;10.05;;;;;;;4.64;71.92;98519.28;2619042;39;20475;-63
2022/04/09 07:53:26;;;;;;;19.55;11.38;;;;;;;4.63;71.74;98515.84;2618285;54;20034;-63
2022/04/09 07:55:56;;;;;;;21.38;12.20;;;;;;;4.95;71.52;98524.72;2618354;54;20519;-64
2022/04/09 07:58:25;;;;;;;23.27;13.43;;;;;;;5.27;71.15;98525.69;2618199;54;20565;-63
2022/04/09 08:00:55;;;;;;;17.10;11.23;;;;;;;5.32;70.32;98531.25;2618293;54;20558;-62
2022/04/09 08:03:24;;;;;;;34.60;19.73;;;;;;;5.13;70.33;98533.22;2619203;39;20478;-63
2022/04/09 08:05:54;;;;;;;28.25;17.08;;;;;;;5.06;70.32;98532.25;2618323;54;20030;-64
2022/04/09 08:08:27;;;;;;;16.77;12.80;;;;;;;5.21;70.28;98535.03;2618315;54;20026;-63
2022/04/09 08:10:56;;;;;;;17.05;10.95;;;;;;;5.22;69.95;98527.00;2618543;54;20041;-63
2022/04/09 08:13:26;;;;;;;15.65;10.65;;;;;;;5.21;69.80;98524.53;2618703;54;20037;-62
2022/04/09 08:15:56;;;;;;;19.98;12.23;;;;;;;5.35;70.26;98530.94;2621919;54;20041;-63
2022/04/09 08:18:25;;;;;;;18.52;11.80;;;;;;;5.63;69.35;98539.22;2621799;54;20663;-63
2022/04/09 08:21:05;;;;;;;17.17;11.02;;;;;;;5.49;69.33;98539.91;2618430;54;20031;-63
2022/04/09 08:23:37;;;;;;;20.42;11.57;;;;;;;5.69;69.32;98538.56;2618441;54;20034;-62
2022/04/09 08:26:07;;;;;;;18.40;11.40;;;;;;;5.88;68.86;98540.81;2619873;54;20074;-65
2022/04/09 08:28:37;;;;;;;21.20;12.27;;;;;;;5.68;68.72;98543.00;2620610;54;20037;-64
2022/04/09 08:31:07;;;;;;;19.08;11.52;;;;;;;5.59;68.43;98543.16;2620252;39;20125;-63
2022/04/09 08:33:40;;;;;;;19.20;12.43;;;;;;;5.58;68.91;98549.41;2619970;54;20056;-63
2022/04/09 08:36:10;;;;;;;20.98;11.52;;;;;;;5.43;68.58;98544.84;2620578;54;20042;-63
2022/04/09 08:38:42;;;;;;;20.23;12.13;;;;;;;5.55;69.42;98541.84;2620947;54;20038;-63
2022/04/09 08:41:11;;;;;;;19.00;11.48;;;;;;;5.66;68.75;98549.38;2621250;54;20035;-63
2022/04/09 08:43:42;;;;;;;19.13;11.35;;;;;;;5.61;67.93;98556.94;2621493;54;20034;-63
2022/04/09 08:46:11;;;;;;;19.05;11.50;;;;;;;5.68;68.64;98556.09;2621470;54;20046;-64
2022/04/09 08:48:42;;;;;;;15.70;10.75;;;;;;;5.61;68.14;98556.94;2618761;54;20030;-63
2022/04/09 08:51:12;;;;;;;19.52;12.27;;;;;;;5.78;68.68;98558.53;2618590;54;20035;-63
2022/04/09 08:54:04;;;;;;;19.38;10.77;;;;;;;5.96;67.90;98561.00;2618418;54;20030;-63
2022/04/09 08:56:39;;;;;;;18.65;9.85;;;;;;;5.90;67.53;98564.25;2619385;31;20539;-64
2022/04/09 08:59:09;;;;;;;18.88;9.88;;;;;;;6.07;67.25;98572.91;2618223;54;20062;-64
2022/04/09 09:01:39;;;;;;;18.42;9.60;;;;;;;5.82;67.38;98578.19;2618568;54;20045;-63
2022/04/09 09:04:09;;;;;;;16.48;9.73;;;;;;;5.78;67.04;98573.44;2618877;54;20065;-64
2022/04/09 09:06:44;;;;;;;16.48;8.65;;;;;;;5.73;66.89;98584.44;2618440;54;20039;-63
2022/04/09 09:09:29;;;;;;;16.52;9.30;;;;;;;5.86;66.98;98586.56;2618413;54;20030;-65
2022/04/09 09:12:02;;;;;;;16.60;9.63;;;;;;;6.42;66.69;98593.44;2619550;39;20458;-62
2022/04/09 09:14:36;;;;;;;17.45;9.15;;;;;;;6.72;65.07;98584.94;2618862;54;20026;-65
2022/04/09 09:17:06;;;;;;;14.02;7.93;;;;;;;6.72;64.03;98596.25;2620649;54;20547;-65
2022/04/09 09:19:45;;;;;;;17.40;8.90;;;;;;;7.13;64.27;98590.72;2620355;47;20030;-63
2022/04/09 09:22:15;;;;;;;15.98;8.50;;;;;;;7.15;63.87;98592.19;2620448;54;20133;-65
2022/04/09 09:25:04;;;;;;;19.25;9.32;;;;;;;7.31;63.54;98593.09;2621379;54;20034;-63
2022/04/09 09:27:36;;;;;;;17.83;9.15;;;;;;;7.53;61.75;98605.38;2620645;54;20031;-64
2022/04/09 09:30:07;;;;;;;17.98;7.70;;;;;;;7.42;61.59;98603.16;2620768;54;20042;-66
2022/04/09 09:32:38;;;;;;;15.18;8.60;;;;;;;7.34;62.38;98604.03;2621115;39;20429;-63
2022/04/09 09:35:13;;;;;;;15.30;7.72;;;;;;;7.68;62.08;98608.84;2621566;54;20554;-63
2022/04/09 09:37:43;;;;;;;18.23;7.97;;;;;;;7.51;61.07;98617.06;2621517;54;20037;-64
2022/04/09 09:40:33;;;;;;;14.88;7.43;;;;;;;7.60;60.53;98621.28;2622059;54;20046;-62
2022/04/09 09:43:15;;;;;;;18.45;8.20;;;;;;;7.43;61.12;98617.97;2621585;54;20111;-64
2022/04/09 09:45:45;;;;;;;15.13;7.55;;;;;;;7.39;61.39;98624.56;2621182;54;20032;-64
2022/04/09 09:48:26;;;;;;;12.05;7.78;;;;;;;7.18;61.66;98618.16;2620695;47;20103;-64
2022/04/09 09:50:57;;;;;;;16.48;7.53;;;;;;;7.18;61.27;98622.56;2621796;54;20046;-65
2022/04/09 09:53:31;;;;;;;14.00;7.43;;;;;;;7.24;61.49;98624.50;2619767;54;20031;-63
2022/04/09 09:56:05;;;;;;;21.33;8.30;;;;;;;7.61;61.62;98630.78;2618523;54;20030;-65
2022/04/09 09:58:35;;;;;;;17.05;7.75;;;;;;;7.74;61.33;98638.06;2618307;54;20030;-64
2022/04/09 10:01:17;;;;;;;11.23;6.63;;;;;;;7.51;60.96;98630.19;2617852;51;20069;-63
2022/04/09 10:03:48;;;;;;;18.73;7.30;;;;;;;7.70;61.25;98638.44;2618159;54;20113;-64
2022/04/09 10:06:18;;;;;;;17.83;6.18;;;;;;;7.92;60.17;98638.56;2618455;54;20034;-63
2022/04/09 10:08:47;;;;;;;18.02;6.90;;;;;;;8.20;59.76;98636.13;2618161;54;20027;-63
2022/04/09 10:11:20;;;;;;;19.33;7.32;;;;;;;8.30;59.27;98636.69;2617618;47;20027;-64
2022/04/09 10:13:51;;;;;;;19.08;5.72;;;;;;;8.34;58.95;98639.78;2618370;54;20042;-63
2022/04/09 10:16:21;;;;;;;12.90;6.00;;;;;;;8.03;59.02;98639.94;2617810;47;20031;-63
2022/04/09 10:18:52;;;;;;;16.40;6.18;;;;;;;7.86;59.22;98653.25;2618054;54;20023;-64
2022/04/09 10:21:21;;;;;;;14.15;6.47;;;;;;;7.63;59.81;98650.69;2618395;54;20057;-64
2022/04/09 10:23:52;;;;;;;10.93;6.65;;;;;;;7.70;60.04;98648.94;2618472;54;20030;-65
2022/04/09 10:26:24;;;;;;;12.95;6.03;;;;;;;7.89;59.45;98645.00;2617725;54;20029;-63
2022/04/09 10:28:54;;;;;;;13.50;5.70;;;;;;;7.96;58.95;98637.22;2617879;54;20539;-63
2022/04/09 10:31:38;;;;;;;12.98;6.88;;;;;;;8.00;59.05;98643.75;2618591;39;20442;-62
2022/04/09 10:34:10;;;;;;;17.08;6.45;;;;;;;8.11;59.35;98637.22;2618211;54;20026;-62
2022/04/09 10:37:09;;;;;;;12.30;6.43;;;;;;;8.22;58.42;98634.13;2618259;54;20031;-63
2022/04/09 10:39:46;;;;;;;13.85;6.20;;;;;;;8.47;57.91;98639.97;2618249;54;20026;-63
2022/04/09 10:42:46;;;;;;;14.80;5.40;;;;;;;8.45;57.45;98642.00;2618338;54;20026;-63
2022/04/09 10:45:19;;;;;;;12.07;5.25;;;;;;;8.63;57.32;98644.22;2618190;54;20026;-62
2022/04/09 10:48:08;;;;;;;12.05;5.93;;;;;;;8.68;57.06;98649.75;2618289;39;20446;-62
2022/04/09 10:50:56;;;;;;;11.68;4.97;;;;;;;8.86;56.52;98631.75;2618033;54;20040;-64
2022/04/09 10:53:27;;;;;;;13.05;5.25;;;;;;;8.97;57.10;98635.69;2618216;54;20038;-64
2022/04/09 10:56:13;;;;;;;14.93;6.40;;;;;;;9.09;55.51;98646.59;2618060;54;20037;-63
2022/04/09 10:59:08;;;;;;;28.30;9.45;;;;;;;9.23;56.07;98642.28;2617798;54;20030;-64
2022/04/09 11:01:58;;;;;;;14.55;5.07;;;;;;;9.20;55.66;98650.56;2617438;47;20650;-63
2022/04/09 11:04:47;;;;;;;18.60;6.13;;;;;;;9.07;54.88;98646.78;2618459;54;20058;-64
2022/04/09 11:07:20;;;;;;;20.23;6.45;;;;;;;8.98;55.67;98639.16;2619125;31;20471;-66
2022/04/09 11:09:53;;;;;;;11.48;5.43;;;;;;;8.71;55.21;98643.31;2619069;54;20046;-65
2022/04/09 11:12:25;;;;;;;10.73;5.95;;;;;;;8.51;56.54;98641.25;2618372;47;20038;-65
2022/04/09 11:14:57;;;;;;;12.15;4.72;;;;;;;8.49;56.64;98643.25;2618145;54;20553;-65
2022/04/09 11:17:32;;;;;;;15.68;5.63;;;;;;;8.44;56.71;98642.97;2617636;54;20041;-63
2022/04/09 11:20:07;;;;;;;12.02;5.18;;;;;;;8.30;56.40;98647.22;2618263;39;20447;-65
2022/04/09 11:22:39;;;;;;;20.13;7.75;;;;;;;8.37;57.29;98645.53;2618119;54;20026;-66
2022/04/09 11:25:11;;;;;;;15.13;6.97;;;;;;;8.51;57.26;98645.69;2617904;54;20038;-66
2022/04/09 11:27:40;;;;;;;11.52;5.38;;;;;;;8.53;57.13;98647.16;2618238;31;20527;-65
2022/04/09 11:30:11;;;;;;;9.48;4.68;;;;;;;8.52;56.78;98647.31;2617126;54;20030;-64
2022/04/09 11:32:43;;;;;;;12.70;4.93;;;;;;;8.50;56.40;98651.97;2617599;54;20039;-63
2022/04/09 11:35:13;;;;;;;12.63;4.00;;;;;;;8.35;55.98;98660.66;2617459;54;20038;-63
2022/04/09 11:37:44;;;;;;;13.63;4.80;;;;;;;8.28;55.95;98661.56;2617631;54;20031;-63
2022/04/09 11:40:16;;;;;;;15.82;4.85;;;;;;;8.16;55.65;98648.88;2617986;54;20577;-63
2022/04/09 11:42:47;;;;;;;11.05;4.15;;;;;;;8.09;55.17;98658.47;2617968;54;20031;-63
2022/04/09 11:45:21;;;;;;;10.65;3.90;;;;;;;8.06;55.65;98658.81;2617985;54;20034;-63
2022/04/09 11:47:57;;;;;;;14.27;4.00;;;;;;;8.17;56.02;98660.22;2617512;54;20568;-64
2022/04/09 11:50:31;;;;;;;11.55;4.05;;;;;;;8.05;55.64;98659.00;2617812;54;20547;-63
2022/04/09 11:53:11;;;;;;;8.60;4.18;;;;;;;8.08;55.47;98662.09;2618146;54;20034;-63
2022/04/09 11:55:41;;;;;;;14.95;4.53;;;;;;;8.11;54.89;98661.72;2617223;47;20038;-63
2022/04/09 11:58:14;;;;;;;15.55;4.93;;;;;;;7.94;55.64;98663.72;2617624;54;20042;-64
2022/04/09 12:00:45;;;;;;;11.35;4.97;;;;;;;8.18;55.59;98664.47;2617772;54;20034;-64
2022/04/09 12:03:18;;;;;;;12.73;4.85;;;;;;;8.26;55.08;98677.56;2619885;54;20601;-64
2022/04/09 12:05:51;;;;;;;9.80;4.40;;;;;;;8.62;53.82;98668.97;2622093;54;20040;-64
2022/04/09 12:08:23;;;;;;;11.00;4.28;;;;;;;9.01;53.86;98659.88;2621377;54;20023;-65
2022/04/09 12:10:55;;;;;;;8.55;3.88;;;;;;;9.14;52.44;98660.84;2620563;54;20027;-66
2022/04/09 12:13:29;;;;;;;13.93;4.50;;;;;;;9.09;52.06;98665.03;2621068;39;20428;-65
2022/04/09 12:16:03;;;;;;;11.18;4.68;;;;;;;8.97;51.99;98662.06;2621892;54;20035;-66
2022/04/09 12:18:36;;;;;;;9.55;5.05;;;;;;;9.03;52.34;98663.16;2622060;54;20026;-67
2022/04/09 12:21:20;;;;;;;10.48;4.22;;;;;;;9.14;52.06;98667.94;2621845;54;20073;-65
2022/04/09 12:24:01;;;;;;;7.72;3.25;;;;;;;9.23;51.09;98660.75;2621841;54;20026;-66
2022/04/09 12:26:32;;;;;;;12.25;4.55;;;;;;;9.13;50.69;98664.47;2622357;54;20041;-64
2022/04/09 12:29:11;;;;;;;9.23;4.25;;;;;;;9.04;51.77;98664.78;2622440;54;20573;-65
2022/04/09 12:31:41;;;;;;;12.48;4.68;;;;;;;9.06;51.37;98662.75;2622201;54;20083;-65
2022/04/09 12:34:14;;;;;;;10.73;4.30;;;;;;;8.91;52.09;98666.28;2621934;54;20039;-66
2022/04/09 12:37:02;;;;;;;10.05;4.57;;;;;;;8.78;51.43;98662.69;2622254;54;20030;-65
2022/04/09 12:39:33;;;;;;;9.20;4.25;;;;;;;8.69;52.23;98661.94;2622939;39;20432;-65
2022/04/09 12:42:03;;;;;;;10.50;4.72;;;;;;;8.61;52.26;98660.25;2622323;54;20034;-65
2022/04/09 12:44:34;;;;;;;8.77;4.28;;;;;;;8.47;52.52;98660.25;2621947;54;20034;-65
2022/04/09 12:47:05;;;;;;;10.40;4.35;;;;;;;8.31;52.82;98669.09;2621594;46;20032;-66
2022/04/09 12:49:39;;;;;;;12.05;4.65;;;;;;;8.21;53.35;98672.00;2622504;47;20044;-63
2022/04/09 12:52:11;;;;;;;14.55;5.15;;;;;;;8.33;53.51;98664.50;2622790;54;20026;-63
2022/04/09 12:54:40;;;;;;;11.40;4.65;;;;;;;8.26;53.02;98659.13;2620690;39;20431;-64
2022/04/09 12:57:13;;;;;;;13.38;4.45;;;;;;;8.54;52.61;98651.44;2620616;54;20042;-64
2022/04/09 12:59:43;;;;;;;5.90;3.50;;;;;;;8.84;52.71;98652.19;2621429;54;20042;-64
2022/04/09 13:02:13;;;;;;;8.23;4.13;;;;;;;9.04;51.74;98644.50;2621044;39;20442;-66
2022/04/09 13:04:45;;;;;;;8.50;3.60;;;;;;;9.21;51.98;98637.19;2620481;54;20037;-64
2022/04/09 13:07:15;;;;;;;9.43;3.65;;;;;;;9.46;51.45;98640.25;2622062;54;20038;-64
2022/04/09 13:09:44;;;;;;;7.95;3.80;;;;;;;9.59;50.84;98644.81;2623815;39;20443;-64
2022/04/09 13:12:15;;;;;;;9.15;3.63;;;;;;;9.57;49.97;98646.84;2622509;54;20053;-64
2022/04/09 13:14:44;;;;;;;9.32;3.47;;;;;;;9.29;49.80;98641.50;2622100;54;20026;-64
2022/04/09 13:17:14;;;;;;;10.20;4.57;;;;;;;9.31;49.71;98639.53;2621837;54;20038;-64
2022/04/09 13:19:47;;;;;;;9.15;3.40;;;;;;;9.57;49.30;98647.66;2621979;54;20581;-64
2022/04/09 13:22:17;;;;;;;12.30;4.00;;;;;;;9.64;49.29;98637.19;2622450;54;20029;-64
2022/04/09 13:24:47;;;;;;;6.90;3.15;;;;;;;9.75;48.85;98634.00;2621831;54;20129;-64
2022/04/09 13:27:16;;;;;;;9.35;3.40;;;;;;;9.52;47.91;98638.69;2621806;54;20026;-65
2022/04/09 13:29:46;;;;;;;5.32;3.03;;;;;;;9.36;48.66;98637.94;2621862;47;20037;-64
2022/04/09 13:32:17;;;;;;;8.90;3.42;;;;;;;9.27;48.77;98643.53;2621768;54;20045;-65
2022/04/09 13:34:49;;;;;;;10.98;3.50;;;;;;;9.17;48.52;98642.00;2621734;54;20026;-67
2022/04/09 13:37:20;;;;;;;8.05;2.78;;;;;;;9.40;48.82;98639.19;2620975;54;20081;-64
2022/04/09 13:39:50;;;;;;;10.20;4.18;;;;;;;9.74;48.55;98632.38;2621525;54;20030;-64
2022/04/09 13:42:19;;;;;;;8.75;3.50;;;;;;;9.84;47.54;98635.50;2621680;54;20038;-64
2022/04/09 13:44:49;;;;;;;8.90;3.40;;;;;;;9.71;47.87;98627.47;2620855;54;20053;-64
2022/04/09 13:47:18;;;;;;;10.77;3.33;;;;;;;9.74;47.77;98629.72;2621095;54;20034;-64
2022/04/09 13:49:51;;;;;;;8.98;2.92;;;;;;;9.68;47.24;98626.03;2621135;54;20034;-64
2022/04/09 13:52:20;;;;;;;5.60;3.40;;;;;;;9.94;48.14;98608.75;2621323;54;20038;-64
2022/04/09 13:54:51;;;;;;;6.78;2.90;;;;;;;9.63;47.07;98614.41;2620846;54;20030;-64
2022/04/09 13:57:21;;;;;;;7.85;3.35;;;;;;;9.57;47.02;98613.34;2620640;47;20037;-64
2022/04/09 13:59:51;;;;;;;8.02;2.70;;;;;;;9.51;47.53;98608.84;2620605;54;20042;-64
2022/04/09 14:02:21;;;;;;;7.93;3.80;;;;;;;9.63;47.68;98603.84;2621263;54;20035;-65
2022/04/09 14:04:54;;;;;;;16.45;3.60;;;;;;;9.51;47.36;98606.22;2621671;54;20034;-63
2022/04/09 14:07:23;;;;;;;7.57;3.10;;;;;;;9.43;47.37;98596.59;2621314;54;20041;-64
2022/04/09 14:09:53;;;;;;;10.60;4.00;;;;;;;9.66;47.10;98604.28;2620712;54;20126;-64
2022/04/09 14:12:23;;;;;;;19.17;7.35;;;;;;;9.83;47.60;98607.44;2621730;54;20052;-65
2022/04/09 14:14:52;;;;;;;10.27;4.30;;;;;;;9.81;47.02;98612.13;2620562;47;20030;-64
2022/04/09 14:17:22;;;;;;;7.38;3.83;;;;;;;10.02;47.15;98611.25;2621797;39;20427;-64
2022/04/09 14:19:55;;;;;;;9.40;3.20;;;;;;;10.02;46.36;98613.06;2621993;39;20446;-64
2022/04/09 14:22:24;;;;;;;7.15;2.88;;;;;;;9.66;46.61;98616.66;2621564;54;20037;-63
2022/04/09 14:24:54;;;;;;;7.65;3.67;;;;;;;9.41;47.61;98617.06;2623057;39;20453;-64
2022/04/09 14:27:23;;;;;;;10.77;3.42;;;;;;;9.27;47.38;98620.63;2623955;54;20065;-65
2022/04/09 14:29:53;;;;;;;8.80;2.80;;;;;;;9.12;47.38;98625.94;2623631;54;20030;-63
2022/04/09 14:32:23;;;;;;;6.60;3.13;;;;;;;9.02;47.49;98627.22;2624042;39;20446;-63
2022/04/09 14:34:55;;;;;;;10.45;3.42;;;;;;;8.98;47.54;98626.81;2623313;54;20034;-64
2022/04/09 14:37:27;;;;;;;7.38;2.78;;;;;;;8.90;47.95;98638.28;2623198;54;20031;-64
2022/04/09 14:39:56;;;;;;;5.25;2.65;;;;;;;8.59;49.04;98643.78;2622954;31;20625;-63
2022/04/09 14:42:26;;;;;;;11.73;3.08;;;;;;;8.44;50.67;98650.88;2621665;39;20435;-64
2022/04/09 14:44:56;;;;;;;8.55;2.67;;;;;;;8.27;51.71;98658.09;2621783;39;20423;-64
2022/04/09 14:47:25;;;;;;;6.32;2.67;;;;;;;8.06;52.51;98656.19;2621005;39;20408;-63
2022/04/09 14:49:57;;;;;;;5.20;2.30;;;;;;;7.87;53.11;98678.56;2620540;47;20033;-63
2022/04/09 14:52:27;;;;;;;5.47;2.17;;;;;;;7.68;53.69;98679.91;2620999;54;20034;-64
2022/04/09 14:54:57;;;;;;;5.85;2.10;;;;;;;7.46;53.70;98701.75;2621330;54;20030;-64
2022/04/09 14:57:27;;;;;;;3.00;1.80;;;;;;;7.03;54.84;98700.56;2621734;47;20034;-65
2022/04/09 14:59:57;;;;;;;5.45;2.20;;;;;;;6.79;55.65;98704.09;2623445;39;20419;-64
2022/04/09 15:02:27;;;;;;;3.63;1.40;;;;;;;6.39;56.97;98703.25;2622972;54;20034;-64
2022/04/09 15:05:00;;;;;;;5.97;1.90;;;;;;;6.22;58.17;98699.84;2621938;54;20047;-63
2022/04/09 15:07:30;;;;;;;3.50;1.73;;;;;;;6.19;58.90;98711.47;2622312;54;20042;-64
2022/04/09 15:10:00;;;;;;;5.55;2.28;;;;;;;6.40;60.00;98710.94;2622621;54;20033;-64
2022/04/09 15:12:30;;;;;;;8.40;3.30;;;;;;;6.54;60.15;98706.00;2621937;54;20038;-64
2022/04/09 15:15:00;;;;;;;6.38;3.30;;;;;;;6.86;60.24;98700.63;2622604;54;20034;-64
2022/04/09 15:17:29;;;;;;;7.72;3.00;;;;;;;7.19;60.15;98697.84;2622393;54;20037;-64
2022/04/09 15:20:02;;;;;;;5.43;3.10;;;;;;;7.36;59.89;98680.94;2622733;39;20416;-64
2022/04/09 15:22:31;;;;;;;6.43;2.95;;;;;;;7.47;59.98;98684.16;2622104;54;20039;-63
2022/04/09 15:25:01;;;;;;;5.50;2.63;;;;;;;7.56;60.09;98685.75;2618704;54;20065;-64
2022/04/09 15:27:31;;;;;;;6.65;2.60;;;;;;;7.66;59.61;98681.06;2618784;54;20582;-67
2022/04/09 15:30:01;;;;;;;5.85;2.45;;;;;;;7.77;59.57;98688.53;2621487;54;20045;-63
2022/04/09 15:32:33;;;;;;;7.10;2.80;;;;;;;7.93;59.29;98692.84;2622515;39;20427;-64
2022/04/09 15:35:06;;;;;;;4.60;1.85;;;;;;;7.87;58.07;98689.09;2622930;54;20070;-64
2022/04/09 15:37:36;;;;;;;5.70;1.90;;;;;;;7.98;57.89;98684.41;2622867;39;20439;-64
2022/04/09 15:40:07;;;;;;;3.47;1.80;;;;;;;8.02;57.34;98677.78;2622601;54;20530;-64
2022/04/09 15:42:37;;;;;;;5.32;1.80;;;;;;;8.26;57.22;98679.38;2623086;39;20442;-64
2022/04/09 15:45:10;;;;;;;2.58;1.38;;;;;;;8.39;55.98;98685.66;2622729;54;20034;-65
2022/04/09 15:47:40;;;;;;;2.45;1.70;;;;;;;8.36;55.22;98683.34;2622862;54;20090;-64
2022/04/09 15:50:13;;;;;;;2.22;1.52;;;;;;;8.58;55.89;98672.97;2623082;46;20050;-65
2022/04/09 15:52:43;;;;;;;6.05;2.35;;;;;;;8.79;55.42;98680.94;2622450;54;20031;-65
2022/04/09 15:55:12;;;;;;;5.18;2.28;;;;;;;8.91;55.34;98687.38;2622580;54;20074;-65
2022/04/09 15:57:42;;;;;;;1.60;1.45;;;;;;;9.06;55.42;98679.44;2622140;54;20034;-65
2022/04/09 16:00:13;;;;;;;3.20;1.90;;;;;;;9.05;55.00;98683.06;2621554;54;20026;-64
2022/04/09 16:02:42;;;;;;;2.13;1.65;;;;;;;9.11;54.90;98678.88;2622359;54;20034;-65
2022/04/09 16:05:15;;;;;;;3.38;2.30;;;;;;;9.26;54.42;98678.81;2622405;54;20038;-65
2022/04/09 16:07:44;;;;;;;3.05;1.67;;;;;;;9.39;53.90;98678.97;2621855;54;20034;-65
2022/04/09 16:10:14;;;;;;;2.55;1.60;;;;;;;9.27;53.42;98683.09;2622259;54;20601;-65
2022/04/09 16:12:44;;;;;;;2.20;1.40;;;;;;;9.38;52.71;98682.59;2622399;54;20038;-65
2022/04/09 16:15:14;;;;;;;4.25;1.60;;;;;;;9.42;52.42;98676.75;2622007;54;20042;-65
2022/04/09 16:17:44;;;;;;;3.25;2.20;;;;;;;9.38;52.62;98666.75;2621507;54;20480;-64
2022/04/09 16:20:17;;;;;;;3.25;2.22;;;;;;;9.43;52.84;98670.50;2621508;54;20562;-65
2022/04/09 16:22:47;;;;;;;2.43;1.27;;;;;;;9.53;52.30;98672.00;2621623;54;20041;-64
2022/04/09 16:25:17;;;;;;;4.82;1.70;;;;;;;9.58;52.58;98677.50;2620992;54;20306;-65
2022/04/09 16:27:46;;;;;;;4.70;1.83;;;;;;;9.53;51.92;98682.53;2621245;54;20086;-64
2022/04/09 16:30:16;;;;;;;2.63;1.42;;;;;;;9.39;52.54;98679.78;2621796;54;20033;-64
2022/04/09 16:32:45;;;;;;;4.22;1.50;;;;;;;9.41;52.69;98690.94;2621488;54;20030;-64
2022/04/09 16:35:20;;;;;;;4.07;1.60;;;;;;;9.53;52.41;98693.09;2621306;54;20035;-64
2022/04/09 16:38:07;;;;;;;3.35;1.83;;;;;;;9.53;52.44;98690.47;2621109;54;20034;-64
2022/04/09 16:40:37;;;;;;;3.08;2.00;;;;;;;9.81;52.04;98696.59;2621715;54;20035;-63
2022/04/09 16:43:07;;;;;;;3.67;1.95;;;;;;;9.80;51.49;98699.44;2620720;54;20030;-65
2022/04/09 16:45:37;;;;;;;4.45;1.80;;;;;;;9.74;52.11;98693.09;2621218;54;20029;-64
2022/04/09 16:48:07;;;;;;;4.72;2.25;;;;;;;9.78;51.80;98704.91;2620089;47;20027;-64
2022/04/09 16:50:39;;;;;;;3.72;2.10;;;;;;;9.74;50.88;98702.81;2620874;47;20472;-64
2022/04/09 16:53:09;;;;;;;4.07;2.03;;;;;;;9.74;50.91;98700.19;2622720;54;20098;-64
2022/04/09 16:55:40;;;;;;;13.18;2.20;;;;;;;9.85;51.23;98700.50;2622721;54;20027;-64
2022/04/09 16:58:11;;;;;;;5.47;2.10;;;;;;;9.93;50.66;98703.00;2622882;39;20407;-65
2022/04/09 17:00:41;;;;;;;7.70;2.10;;;;;;;9.92;50.46;98706.66;2622685;39;20438;-65
2022/04/09 17:03:10;;;;;;;6.53;2.38;;;;;;;9.81;50.15;98709.81;2621885;54;20055;-64
2022/04/09 17:05:42;;;;;;;5.10;1.80;;;;;;;9.83;50.14;98717.53;2621316;54;20035;-64
2022/04/09 17:08:12;;;;;;;6.43;2.08;;;;;;;9.91;50.33;98720.03;2620809;47;20031;-64
2022/04/09 17:10:42;;;;;;;4.50;2.35;;;;;;;9.91;50.15;98720.84;2622352;39;20470;-65
2022/04/09 17:13:12;;;;;;;3.67;1.90;;;;;;;9.85;49.99;98728.72;2622780;54;20041;-65
2022/04/09 17:15:42;;;;;;;7.00;2.30;;;;;;;9.60;50.44;98729.09;2622554;54;20050;-65
2022/04/09 17:18:11;;;;;;;6.65;2.25;;;;;;;9.26;51.35;98731.56;2622203;54;20026;-64
2022/04/09 17:20:44;;;;;;;5.03;2.22;;;;;;;8.67;52.57;98732.47;2622460;54;20034;-64
2022/04/09 17:23:13;;;;;;;6.25;3.33;;;;;;;8.40;53.50;98739.97;2621956;54;20031;-64
2022/04/09 17:25:43;;;;;;;9.68;3.90;;;;;;;8.27;53.72;98738.94;2622223;54;20034;-64
2022/04/09 17:28:16;;;;;;;7.80;2.50;;;;;;;7.95;54.51;98735.59;2622024;54;20026;-64
2022/04/09 17:30:48;;;;;;;4.90;2.60;;;;;;;7.68;55.25;98739.59;2622719;54;20026;-65
2022/04/09 17:33:23;;;;;;;6.22;2.17;;;;;;;7.50;55.90;98742.50;2623425;54;20038;-65
2022/04/09 17:35:55;;;;;;;4.07;2.30;;;;;;;7.32;56.29;98745.41;2623221;54;20082;-65
2022/04/09 17:38:25;;;;;;;5.38;2.20;;;;;;;7.22;57.14;98742.16;2623571;39;20438;-64
2022/04/09 17:40:55;;;;;;;5.72;2.38;;;;;;;7.14;57.11;98750.09;2622473;46;20035;-64
2022/04/09 17:43:24;;;;;;;5.90;2.40;;;;;;;7.06;57.37;98748.34;2622760;54;20045;-66
2022/04/09 17:45:54;;;;;;;3.90;2.75;;;;;;;7.05;57.63;98746.69;2622544;54;20026;-64
2022/04/09 17:48:24;;;;;;;4.28;2.30;;;;;;;7.05;58.20;98744.06;2622142;54;20031;-66